Time;durP1;ratioP1;P1;durP2;ratioP2;P2;SDS_P1;SDS_P2;PMS_P1;PMS_P2;Temp;Humidity;BMP_temperature;BMP_pressure;BME280_temperature;BME280_humidity;BME280_pressure;Samples;Min_cycle;Max_cycle;Signal;HPM_P1;HPM_P2
2023/08/13 00:02:09;;;;;;;3.80;3.40;;;;;;;;;;5088383;28;20374;-85
2023/08/13 00:04:36;;;;;;;3.80;3.50;;;;;;;;;;5092492;28;20542;-85
2023/08/13 00:07:02;;;;;;;3.63;3.10;;;;;;;;;;5086504;28;20380;-85
2023/08/13 00:09:28;;;;;;;3.42;3.13;;;;;;;;;;5090439;28;20447;-85
2023/08/13 00:11:54;;;;;;;3.92;3.40;;;;;;;;;;5088637;28;20391;-87
2023/08/13 00:14:21;;;;;;;3.90;3.50;;;;;;;;;;5079932;28;20383;-85
2023/08/13 00:16:47;;;;;;;3.75;3.35;;;;;;;;;;5089742;28;20951;-86
2023/08/13 00:19:13;;;;;;;3.63;3.03;;;;;;;;;;5093029;28;20379;-86
2023/08/13 00:21:39;;;;;;;3.60;3.30;;;;;;;;;;5092123;28;20594;-86
2023/08/13 00:24:06;;;;;;;3.80;3.50;;;;;;;;;;5066246;28;20799;-86
2023/08/13 00:26:32;;;;;;;3.75;3.45;;;;;;;;;;5085077;28;20401;-86
2023/08/13 00:28:58;;;;;;;3.65;3.35;;;;;;;;;;5085815;28;20455;-86
2023/08/13 00:31:24;;;;;;;3.60;3.30;;;;;;;;;;5093135;28;20409;-86
2023/08/13 00:33:50;;;;;;;4.05;3.20;;;;;;;;;;5099363;28;20469;-86
2023/08/13 00:36:16;;;;;;;4.30;3.60;;;;;;;;;;5099827;28;20744;-86
2023/08/13 00:38:42;;;;;;;3.83;3.43;;;;;;;;;;5099680;28;20835;-86
2023/08/13 00:41:08;;;;;;;3.50;3.20;;;;;;;;;;5099396;28;20395;-86
2023/08/13 00:43:34;;;;;;;3.58;3.10;;;;;;;;;;5098247;28;20413;-86
2023/08/13 00:46:00;;;;;;;3.38;3.05;;;;;;;;;;5091306;28;20883;-86
2023/08/13 00:48:27;;;;;;;3.47;3.17;;;;;;;;;;5080179;28;20453;-86
2023/08/13 00:50:53;;;;;;;3.63;2.90;;;;;;;;;;5080246;28;20384;-86
2023/08/13 00:53:19;;;;;;;4.43;2.90;;;;;;;;;;5080476;28;20486;-86
2023/08/13 00:55:45;;;;;;;4.25;2.97;;;;;;;;;;5082372;28;20419;-86
2023/08/13 00:58:12;;;;;;;3.45;3.10;;;;;;;;;;5074682;28;20403;-86
2023/08/13 01:00:38;;;;;;;3.47;3.10;;;;;;;;;;5081360;28;20471;-86
2023/08/13 01:03:04;;;;;;;3.95;3.08;;;;;;;;;;5086589;28;20413;-86
2023/08/13 01:05:50;;;;;;;3.97;3.15;;;;;;;;;;5098765;28;20389;-86
2023/08/13 01:08:26;;;;;;;3.33;2.92;;;;;;;;;;5088739;28;20405;-86
2023/08/13 01:10:57;;;;;;;3.50;3.00;;;;;;;;;;5096757;28;20378;-86
2023/08/13 01:13:28;;;;;;;3.53;3.15;;;;;;;;;;5088050;28;20462;-86
2023/08/13 01:15:56;;;;;;;4.22;3.05;;;;;;;;;;5089178;28;20395;-86
2023/08/13 01:18:23;;;;;;;3.55;3.20;;;;;;;;;;5097363;28;20390;-85
2023/08/13 01:20:49;;;;;;;3.30;3.00;;;;;;;;;;5087536;28;20410;-86
2023/08/13 01:23:15;;;;;;;3.43;3.00;;;;;;;;;;5078011;28;20504;-86
2023/08/13 01:25:46;;;;;;;3.97;2.80;;;;;;;;;;5098130;28;20409;-86
2023/08/13 01:28:12;;;;;;;3.40;3.10;;;;;;;;;;5090188;28;20390;-86
2023/08/13 01:30:46;;;;;;;3.88;2.97;;;;;;;;;;5078363;28;20459;-86
2023/08/13 01:33:14;;;;;;;3.10;2.80;;;;;;;;;;5078093;28;20384;-86
2023/08/13 01:35:42;;;;;;;3.22;2.90;;;;;;;;;;5078758;28;20379;-86
2023/08/13 01:38:08;;;;;;;3.10;2.72;;;;;;;;;;5090475;28;20397;-86
2023/08/13 01:40:34;;;;;;;3.20;2.90;;;;;;;;;;5083054;28;20384;-86
2023/08/13 01:43:00;;;;;;;3.83;3.17;;;;;;;;;;5088075;28;20451;-86
2023/08/13 01:45:26;;;;;;;3.63;2.80;;;;;;;;;;5101004;28;20389;-86
2023/08/13 01:47:52;;;;;;;3.38;2.92;;;;;;;;;;5082384;28;20384;-85
2023/08/13 01:50:18;;;;;;;3.90;2.80;;;;;;;;;;5063004;28;20887;-86
2023/08/13 01:52:44;;;;;;;3.50;3.20;;;;;;;;;;5097649;28;20443;-86
2023/08/13 01:55:11;;;;;;;3.63;3.28;;;;;;;;;;5092994;28;20959;-86
2023/08/13 01:57:37;;;;;;;3.20;3.00;;;;;;;;;;5080580;28;20387;-86
2023/08/13 02:00:03;;;;;;;3.53;3.10;;;;;;;;;;5081352;28;20439;-86
2023/08/13 02:02:29;;;;;;;2.90;2.70;;;;;;;;;;5083564;28;20869;-86
2023/08/13 02:04:55;;;;;;;4.28;3.10;;;;;;;;;;5081780;28;20389;-86
2023/08/13 02:07:21;;;;;;;3.42;3.13;;;;;;;;;;5088679;28;20391;-86
2023/08/13 02:09:47;;;;;;;4.47;3.00;;;;;;;;;;5082137;28;20396;-86
2023/08/13 02:12:13;;;;;;;3.10;2.72;;;;;;;;;;5074101;28;20382;-86
2023/08/13 02:14:39;;;;;;;3.08;2.83;;;;;;;;;;5094229;28;20400;-86
2023/08/13 02:17:05;;;;;;;3.45;3.10;;;;;;;;;;5092285;28;20764;-86
2023/08/13 02:19:31;;;;;;;3.72;2.88;;;;;;;;;;5083705;28;20388;-85
2023/08/13 02:21:57;;;;;;;4.45;3.30;;;;;;;;;;5071339;28;20418;-86
2023/08/13 02:24:23;;;;;;;3.10;2.90;;;;;;;;;;5094292;28;20802;-86
2023/08/13 02:26:49;;;;;;;3.03;2.72;;;;;;;;;;5093207;28;20379;-86
2023/08/13 02:29:15;;;;;;;3.20;2.95;;;;;;;;;;5097095;28;20529;-86
2023/08/13 02:31:41;;;;;;;3.20;3.00;;;;;;;;;;5093306;28;20414;-86
2023/08/13 02:34:07;;;;;;;3.33;3.03;;;;;;;;;;5082378;28;20384;-86
2023/08/13 02:36:33;;;;;;;3.40;3.10;;;;;;;;;;5093797;28;20390;-87
2023/08/13 02:39:00;;;;;;;3.45;3.15;;;;;;;;;;5092656;28;21183;-87
2023/08/13 02:41:26;;;;;;;3.55;2.90;;;;;;;;;;5076924;28;20378;-87
2023/08/13 02:43:53;;;;;;;3.13;2.80;;;;;;;;;;5082049;28;20461;-87
2023/08/13 02:46:20;;;;;;;3.42;3.13;;;;;;;;;;5077590;28;20463;-87
2023/08/13 02:48:46;;;;;;;5.28;3.00;;;;;;;;;;5077626;28;20384;-87
2023/08/13 02:51:15;;;;;;;3.58;3.00;;;;;;;;;;5067622;28;20732;-87
2023/08/13 02:53:42;;;;;;;3.10;2.80;;;;;;;;;;5086166;28;20391;-87
2023/08/13 02:56:08;;;;;;;3.45;2.90;;;;;;;;;;5080226;28;20454;-87
2023/08/13 02:58:34;;;;;;;3.40;3.10;;;;;;;;;;5091278;28;20410;-86
2023/08/13 03:01:00;;;;;;;4.07;2.87;;;;;;;;;;5083965;28;20424;-86
2023/08/13 03:03:26;;;;;;;3.17;2.97;;;;;;;;;;5096564;28;20409;-87
2023/08/13 03:05:52;;;;;;;3.22;2.92;;;;;;;;;;5079295;28;20390;-86
2023/08/13 03:08:18;;;;;;;3.70;3.13;;;;;;;;;;5074889;28;20384;-87
2023/08/13 03:10:44;;;;;;;3.78;2.90;;;;;;;;;;5073441;28;20382;-86
2023/08/13 03:13:10;;;;;;;3.28;2.97;;;;;;;;;;5079792;28;20802;-86
2023/08/13 03:15:36;;;;;;;3.17;2.88;;;;;;;;;;5079687;28;20384;-86
2023/08/13 03:18:02;;;;;;;3.78;2.97;;;;;;;;;;5076632;28;20398;-86
2023/08/13 03:20:28;;;;;;;3.17;2.92;;;;;;;;;;5093328;28;20382;-86
2023/08/13 03:22:54;;;;;;;3.30;3.00;;;;;;;;;;5078104;28;20463;-86
2023/08/13 03:25:20;;;;;;;3.33;3.03;;;;;;;;;;5078788;28;20380;-87
2023/08/13 03:27:46;;;;;;;3.60;3.10;;;;;;;;;;5079363;28;20418;-86
2023/08/13 03:30:12;;;;;;;3.87;3.47;;;;;;;;;;5095179;28;20445;-86
2023/08/13 03:32:38;;;;;;;3.27;2.90;;;;;;;;;;5079761;28;20432;-86
2023/08/13 03:35:04;;;;;;;2.70;2.50;;;;;;;;;;5083228;28;20387;-86
2023/08/13 03:37:30;;;;;;;3.30;3.05;;;;;;;;;;5081607;28;20402;-86
2023/08/13 03:39:56;;;;;;;3.08;2.80;;;;;;;;;;5099231;28;20863;-87
2023/08/13 03:42:22;;;;;;;3.40;3.10;;;;;;;;;;5063578;28;20449;-87
2023/08/13 03:44:48;;;;;;;3.58;2.92;;;;;;;;;;5078826;28;20419;-86
2023/08/13 03:47:14;;;;;;;3.67;3.30;;;;;;;;;;5095263;28;20457;-86
2023/08/13 03:49:41;;;;;;;3.55;2.80;;;;;;;;;;5073504;28;20512;-86
2023/08/13 03:52:09;;;;;;;3.22;2.92;;;;;;;;;;5093102;28;20381;-86
2023/08/13 03:54:35;;;;;;;3.28;2.97;;;;;;;;;;5099885;28;20439;-87
2023/08/13 03:57:01;;;;;;;3.20;2.97;;;;;;;;;;5068378;28;20491;-86
2023/08/13 03:59:27;;;;;;;4.10;2.97;;;;;;;;;;5093064;28;20540;-86
2023/08/13 04:01:53;;;;;;;3.35;3.05;;;;;;;;;;5072111;28;20481;-87
2023/08/13 04:04:19;;;;;;;4.25;2.95;;;;;;;;;;5096649;28;20434;-86
2023/08/13 04:06:46;;;;;;;3.90;3.28;;;;;;;;;;5069680;28;20398;-87
2023/08/13 04:09:12;;;;;;;3.33;3.03;;;;;;;;;;5099221;28;20382;-86
2023/08/13 04:11:38;;;;;;;3.38;3.08;;;;;;;;;;5093283;28;20444;-86
2023/08/13 04:14:04;;;;;;;3.60;3.30;;;;;;;;;;5091966;28;20378;-86
2023/08/13 04:16:30;;;;;;;3.33;3.03;;;;;;;;;;5085674;28;20384;-86
2023/08/13 04:18:56;;;;;;;3.40;3.10;;;;;;;;;;5089882;28;20857;-87
2023/08/13 04:21:24;;;;;;;3.15;2.95;;;;;;;;;;5095124;28;20401;-86
2023/08/13 04:23:50;;;;;;;3.10;2.78;;;;;;;;;;5098822;28;20911;-86
2023/08/13 04:26:16;;;;;;;3.70;3.10;;;;;;;;;;5088597;28;20459;-86
2023/08/13 04:28:42;;;;;;;3.47;3.17;;;;;;;;;;5077835;28;20485;-86
2023/08/13 04:31:08;;;;;;;3.85;3.50;;;;;;;;;;5081600;28;20382;-86
2023/08/13 04:33:34;;;;;;;4.03;3.20;;;;;;;;;;5099466;28;20381;-86
2023/08/13 04:36:00;;;;;;;3.70;3.20;;;;;;;;;;5091971;28;20415;-87
2023/08/13 04:38:25;;;;;;;3.47;3.17;;;;;;;;;;5092753;28;20386;-86
2023/08/13 04:40:51;;;;;;;4.97;4.10;;;;;;;;;;5098322;28;20385;-87
2023/08/13 04:43:17;;;;;;;3.70;3.40;;;;;;;;;;5099038;28;20898;-86
2023/08/13 04:45:46;;;;;;;4.05;3.20;;;;;;;;;;5098780;28;20393;-86
2023/08/13 04:48:12;;;;;;;3.50;3.20;;;;;;;;;;5099048;28;20374;-86
2023/08/13 04:50:38;;;;;;;4.20;3.20;;;;;;;;;;5099331;28;20386;-87
2023/08/13 04:53:04;;;;;;;4.00;3.40;;;;;;;;;;5099758;28;20502;-86
2023/08/13 04:55:30;;;;;;;4.07;3.40;;;;;;;;;;5067140;28;20395;-86
2023/08/13 04:57:56;;;;;;;4.00;3.10;;;;;;;;;;5089617;28;20823;-87
2023/08/13 05:00:22;;;;;;;4.65;3.45;;;;;;;;;;5069102;28;20384;-87
2023/08/13 05:02:48;;;;;;;3.72;3.42;;;;;;;;;;5083029;28;20499;-85
2023/08/13 05:05:14;;;;;;;3.70;3.40;;;;;;;;;;5098997;28;20412;-86
2023/08/13 05:07:40;;;;;;;3.47;3.20;;;;;;;;;;5098954;28;20378;-85
2023/08/13 05:10:06;;;;;;;3.70;3.40;;;;;;;;;;5098975;28;20728;-86
2023/08/13 05:12:32;;;;;;;3.70;3.40;;;;;;;;;;5102361;28;20397;-86
2023/08/13 05:14:58;;;;;;;3.30;3.00;;;;;;;;;;5102376;28;20382;-86
2023/08/13 05:17:25;;;;;;;4.00;3.60;;;;;;;;;;5083054;28;20439;-86
2023/08/13 05:19:52;;;;;;;3.85;3.42;;;;;;;;;;5101189;28;20443;-85
2023/08/13 05:22:18;;;;;;;3.70;3.40;;;;;;;;;;5099816;28;20478;-86
2023/08/13 05:24:46;;;;;;;3.60;3.30;;;;;;;;;;5099898;28;20453;-85
2023/08/13 05:27:12;;;;;;;3.60;3.30;;;;;;;;;;5092447;28;20511;-86
2023/08/13 05:29:40;;;;;;;3.60;3.30;;;;;;;;;;5103337;28;20389;-86
2023/08/13 05:32:06;;;;;;;4.10;3.72;;;;;;;;;;5084789;28;20397;-86
2023/08/13 05:34:32;;;;;;;4.22;3.63;;;;;;;;;;5099598;28;20434;-86
2023/08/13 05:36:58;;;;;;;3.60;3.30;;;;;;;;;;5087353;28;20415;-87
2023/08/13 05:39:24;;;;;;;3.80;3.50;;;;;;;;;;5083444;28;20375;-86
2023/08/13 05:41:50;;;;;;;3.30;3.00;;;;;;;;;;5083510;28;20375;-86
2023/08/13 05:44:16;;;;;;;3.58;3.28;;;;;;;;;;5103778;28;20439;-85
2023/08/13 05:46:42;;;;;;;3.78;3.47;;;;;;;;;;5093904;28;20413;-86
2023/08/13 05:49:08;;;;;;;3.70;3.40;;;;;;;;;;5102089;28;20395;-86
2023/08/13 05:51:34;;;;;;;3.50;3.20;;;;;;;;;;5107143;28;20749;-86
2023/08/13 05:54:00;;;;;;;3.97;3.67;;;;;;;;;;5074439;28;20384;-85
2023/08/13 05:56:26;;;;;;;3.65;3.35;;;;;;;;;;5092200;28;20394;-85
2023/08/13 05:58:52;;;;;;;3.53;3.30;;;;;;;;;;5102419;28;20386;-85
2023/08/13 06:01:18;;;;;;;3.60;3.30;;;;;;;;;;5102020;28;20455;-86
2023/08/13 06:03:44;;;;;;;4.18;3.60;;;;;;;;;;5097223;28;20404;-86
2023/08/13 06:06:10;;;;;;;3.40;3.17;;;;;;;;;;5085359;28;20382;-85
2023/08/13 06:08:36;;;;;;;3.60;3.28;;;;;;;;;;5101275;28;20416;-85
2023/08/13 06:11:03;;;;;;;3.63;3.33;;;;;;;;;;5101056;28;20439;-86
2023/08/13 06:13:29;;;;;;;3.20;2.90;;;;;;;;;;5099767;28;20451;-85
2023/08/13 06:15:55;;;;;;;4.27;3.27;;;;;;;;;;5088941;28;20379;-85
2023/08/13 06:18:24;;;;;;;4.63;3.17;;;;;;;;;;5084333;28;20393;-86
2023/08/13 06:20:50;;;;;;;3.72;3.42;;;;;;;;;;5062762;28;20388;-85
2023/08/13 06:23:16;;;;;;;3.50;3.13;;;;;;;;;;5094297;28;20411;-85
2023/08/13 06:25:42;;;;;;;3.63;2.90;;;;;;;;;;5074049;28;20416;-86
2023/08/13 06:28:08;;;;;;;3.38;3.00;;;;;;;;;;5093072;28;20385;-86
2023/08/13 06:30:34;;;;;;;3.03;2.63;;;;;;;;;;5083679;28;20505;-87
2023/08/13 06:33:00;;;;;;;3.43;3.13;;;;;;;;;;5072423;28;20437;-86
2023/08/13 06:35:26;;;;;;;5.67;3.10;;;;;;;;;;5097876;28;20401;-86
2023/08/13 06:37:52;;;;;;;4.03;2.97;;;;;;;;;;5089813;28;20399;-86
2023/08/13 06:40:18;;;;;;;3.20;2.90;;;;;;;;;;5085086;28;20404;-86
2023/08/13 06:42:44;;;;;;;3.10;2.80;;;;;;;;;;5089575;28;20405;-84
2023/08/13 06:45:10;;;;;;;3.20;2.90;;;;;;;;;;5082925;28;20858;-84
2023/08/13 06:47:36;;;;;;;3.88;2.58;;;;;;;;;;5099403;28;20390;-84
2023/08/13 06:50:03;;;;;;;3.50;3.05;;;;;;;;;;5091988;28;20427;-85
2023/08/13 06:52:29;;;;;;;3.00;2.80;;;;;;;;;;5092751;28;20865;-85
2023/08/13 06:54:55;;;;;;;3.20;2.90;;;;;;;;;;5094720;28;20385;-85
2023/08/13 06:57:21;;;;;;;3.75;3.30;;;;;;;;;;5099010;28;20397;-84
2023/08/13 06:59:48;;;;;;;3.38;3.00;;;;;;;;;;5083736;28;20623;-84
2023/08/13 07:02:15;;;;;;;3.13;2.90;;;;;;;;;;5092225;28;20491;-83
2023/08/13 07:04:41;;;;;;;3.67;3.20;;;;;;;;;;5080080;28;20408;-83
2023/08/13 07:07:07;;;;;;;4.50;3.17;;;;;;;;;;5087737;28;20393;-83
2023/08/13 07:09:33;;;;;;;3.60;3.30;;;;;;;;;;5080874;28;20398;-82
2023/08/13 07:11:59;;;;;;;3.85;3.13;;;;;;;;;;5094718;28;20453;-84
2023/08/13 07:14:25;;;;;;;3.47;3.17;;;;;;;;;;5078710;28;20398;-84
2023/08/13 07:16:51;;;;;;;3.40;3.20;;;;;;;;;;5081873;28;20388;-84
2023/08/13 07:19:17;;;;;;;4.70;3.43;;;;;;;;;;5075412;28;20644;-82
2023/08/13 07:21:43;;;;;;;4.97;3.30;;;;;;;;;;5091864;28;20886;-83
2023/08/13 07:24:09;;;;;;;4.03;3.50;;;;;;;;;;5084096;28;20423;-83
2023/08/13 07:26:35;;;;;;;4.03;3.00;;;;;;;;;;5080140;28;20411;-83
2023/08/13 07:29:03;;;;;;;3.72;3.35;;;;;;;;;;5086124;28;20417;-83
2023/08/13 07:31:29;;;;;;;3.55;3.25;;;;;;;;;;5087182;28;20413;-83
2023/08/13 07:33:55;;;;;;;3.45;3.10;;;;;;;;;;5079308;28;20386;-86
2023/08/13 07:36:21;;;;;;;3.83;3.42;;;;;;;;;;5093899;28;20523;-83
2023/08/13 07:38:48;;;;;;;4.13;3.72;;;;;;;;;;5082611;28;20415;-85
2023/08/13 07:41:14;;;;;;;3.97;3.58;;;;;;;;;;5077751;28;20388;-85
2023/08/13 07:43:40;;;;;;;3.65;3.35;;;;;;;;;;5079249;28;20422;-85
2023/08/13 07:46:06;;;;;;;4.03;3.70;;;;;;;;;;5083411;28;20462;-85
2023/08/13 07:48:32;;;;;;;5.50;3.70;;;;;;;;;;5083749;28;20380;-84
2023/08/13 07:50:58;;;;;;;4.07;3.67;;;;;;;;;;5078606;28;20383;-85
2023/08/13 07:53:24;;;;;;;4.22;3.78;;;;;;;;;;5087717;28;20375;-85
2023/08/13 07:55:50;;;;;;;3.90;3.60;;;;;;;;;;5076695;28;20391;-86
2023/08/13 07:58:17;;;;;;;4.00;3.65;;;;;;;;;;5084665;28;20389;-83
2023/08/13 08:00:44;;;;;;;4.65;4.00;;;;;;;;;;5093997;28;20389;-83
2023/08/13 08:03:10;;;;;;;5.15;4.18;;;;;;;;;;5077961;28;20397;-83
2023/08/13 08:05:36;;;;;;;4.50;4.10;;;;;;;;;;5094868;28;20481;-83
2023/08/13 08:08:02;;;;;;;5.28;4.20;;;;;;;;;;5072754;28;20461;-83
2023/08/13 08:10:28;;;;;;;4.97;4.38;;;;;;;;;;5090008;28;20439;-83
2023/08/13 08:12:55;;;;;;;5.07;4.35;;;;;;;;;;5092773;28;20376;-83
2023/08/13 08:15:21;;;;;;;6.22;4.45;;;;;;;;;;5077524;28;20388;-83
2023/08/13 08:17:48;;;;;;;4.65;4.25;;;;;;;;;;5076671;28;20384;-83
2023/08/13 08:20:14;;;;;;;5.23;4.10;;;;;;;;;;5076609;28;20383;-84
2023/08/13 08:22:40;;;;;;;4.60;4.20;;;;;;;;;;5079804;28;20419;-83
2023/08/13 08:25:07;;;;;;;4.50;4.10;;;;;;;;;;5082308;28;20721;-83
2023/08/13 08:27:33;;;;;;;4.43;4.03;;;;;;;;;;5083794;28;20406;-83
2023/08/13 08:29:59;;;;;;;5.18;4.20;;;;;;;;;;5091308;28;20390;-84
2023/08/13 08:32:25;;;;;;;5.40;3.97;;;;;;;;;;5083078;28;20389;-83
2023/08/13 08:34:51;;;;;;;4.82;4.00;;;;;;;;;;5084462;28;20394;-83
2023/08/13 08:37:17;;;;;;;4.70;4.23;;;;;;;;;;5094608;28;20927;-83
2023/08/13 08:39:43;;;;;;;5.50;4.30;;;;;;;;;;5086513;28;20387;-84
2023/08/13 08:42:11;;;;;;;4.20;3.60;;;;;;;;;;5092677;28;20388;-83
2023/08/13 08:44:39;;;;;;;4.13;3.72;;;;;;;;;;5069319;28;20498;-83
2023/08/13 08:47:06;;;;;;;4.20;3.78;;;;;;;;;;5091134;28;20408;-83
2023/08/13 08:49:33;;;;;;;3.95;3.40;;;;;;;;;;5089899;28;20391;-83
2023/08/13 08:51:59;;;;;;;4.60;3.78;;;;;;;;;;5089127;28;20386;-83
2023/08/13 08:54:25;;;;;;;5.20;3.70;;;;;;;;;;5082148;28;20382;-83
2023/08/13 08:56:51;;;;;;;3.92;3.53;;;;;;;;;;5085253;28;20384;-83
2023/08/13 08:59:17;;;;;;;3.78;3.38;;;;;;;;;;5075821;28;20756;-84
2023/08/13 09:01:43;;;;;;;4.65;3.80;;;;;;;;;;5058471;28;20426;-84
2023/08/13 09:04:09;;;;;;;4.30;3.50;;;;;;;;;;5077224;28;20481;-83
2023/08/13 09:06:54;;;;;;;4.40;3.65;;;;;;;;;;5065324;28;20380;-84
2023/08/13 09:09:20;;;;;;;3.85;3.40;;;;;;;;;;5093768;28;20388;-84
2023/08/13 09:11:46;;;;;;;4.10;3.17;;;;;;;;;;5097798;28;20441;-84
2023/08/13 09:14:13;;;;;;;3.75;3.38;;;;;;;;;;5064803;28;20372;-83
2023/08/13 09:16:44;;;;;;;4.00;3.70;;;;;;;;;;5082474;28;20422;-84
2023/08/13 09:19:10;;;;;;;4.30;3.58;;;;;;;;;;5090264;28;20665;-83
2023/08/13 09:21:36;;;;;;;3.83;3.30;;;;;;;;;;5060324;28;20399;-84
2023/08/13 09:24:02;;;;;;;3.90;3.30;;;;;;;;;;5090796;28;20413;-84
2023/08/13 09:26:28;;;;;;;4.38;3.42;;;;;;;;;;5097116;28;20391;-84
2023/08/13 09:28:54;;;;;;;3.50;3.20;;;;;;;;;;5091976;28;20699;-83
2023/08/13 09:31:24;;;;;;;3.72;3.33;;;;;;;;;;5076774;28;20837;-83
2023/08/13 09:33:52;;;;;;;4.28;3.42;;;;;;;;;;5076980;28;20380;-84
2023/08/13 09:36:18;;;;;;;3.75;3.20;;;;;;;;;;5086977;28;20378;-83
2023/08/13 09:38:44;;;;;;;3.80;3.42;;;;;;;;;;5096324;28;20370;-83
2023/08/13 09:41:13;;;;;;;3.58;3.28;;;;;;;;;;5096312;28;20387;-83
2023/08/13 09:43:40;;;;;;;3.80;2.90;;;;;;;;;;5096462;28;20406;-84
2023/08/13 09:46:07;;;;;;;3.97;3.00;;;;;;;;;;5096813;28;20858;-83
2023/08/13 09:48:33;;;;;;;3.38;3.00;;;;;;;;;;5084029;28;20376;-83
2023/08/13 09:51:02;;;;;;;4.05;2.70;;;;;;;;;;5081174;28;20390;-83
2023/08/13 09:53:30;;;;;;;3.33;2.70;;;;;;;;;;5085285;28;20380;-83
2023/08/13 09:55:58;;;;;;;4.05;2.72;;;;;;;;;;5093994;28;20374;-83
2023/08/13 09:58:24;;;;;;;3.00;2.60;;;;;;;;;;5099876;28;20374;-83
2023/08/13 10:00:51;;;;;;;3.22;2.72;;;;;;;;;;5067446;28;20415;-83
2023/08/13 10:03:17;;;;;;;4.77;2.60;;;;;;;;;;5099644;28;20790;-83
2023/08/13 10:05:46;;;;;;;3.00;2.70;;;;;;;;;;5087689;28;20384;-83
2023/08/13 10:08:13;;;;;;;3.35;2.47;;;;;;;;;;5099621;28;20371;-83
2023/08/13 10:10:40;;;;;;;3.17;2.87;;;;;;;;;;5099262;28;20406;-84
2023/08/13 10:13:06;;;;;;;3.55;3.20;;;;;;;;;;5099458;28;20469;-83
2023/08/13 10:15:34;;;;;;;4.40;3.10;;;;;;;;;;5094137;28;20462;-83
2023/08/13 10:18:00;;;;;;;4.95;3.10;;;;;;;;;;5082389;28;20851;-84
2023/08/13 10:20:26;;;;;;;4.03;3.40;;;;;;;;;;5080289;28;20398;-84
2023/08/13 10:22:53;;;;;;;4.80;3.07;;;;;;;;;;5094753;28;20389;-83
2023/08/13 10:25:26;;;;;;;3.53;3.20;;;;;;;;;;5086794;28;20469;-83
2023/08/13 10:27:53;;;;;;;3.05;2.70;;;;;;;;;;5099140;28;20374;-83
2023/08/13 10:30:20;;;;;;;3.55;2.70;;;;;;;;;;5082326;28;20490;-83
2023/08/13 10:32:49;;;;;;;3.35;3.05;;;;;;;;;;5079445;28;20459;-83
2023/08/13 10:35:23;;;;;;;3.38;2.97;;;;;;;;;;5079256;28;20384;-83
2023/08/13 10:37:50;;;;;;;3.88;3.17;;;;;;;;;;5079605;28;20391;-83
2023/08/13 10:40:16;;;;;;;3.30;3.00;;;;;;;;;;5080056;28;20928;-83
2023/08/13 10:42:46;;;;;;;3.88;2.80;;;;;;;;;;5092830;28;20853;-84
2023/08/13 10:45:14;;;;;;;2.83;2.63;;;;;;;;;;5091871;28;20390;-83
2023/08/13 10:47:40;;;;;;;2.85;2.50;;;;;;;;;;5079637;28;20906;-84
2023/08/13 10:50:27;;;;;;;5.80;2.58;;;;;;;;;;5091280;28;20378;-83
2023/08/13 10:52:54;;;;;;;3.60;2.83;;;;;;;;;;5099431;28;20861;-84
2023/08/13 10:55:23;;;;;;;3.72;2.42;;;;;;;;;;5086570;28;20427;-83
2023/08/13 10:57:52;;;;;;;3.57;2.67;;;;;;;;;;5078697;28;20380;-83
2023/08/13 11:00:20;;;;;;;3.35;2.63;;;;;;;;;;5090789;28;20384;-83
2023/08/13 11:02:46;;;;;;;3.83;2.40;;;;;;;;;;5097749;28;20445;-85
2023/08/13 11:05:12;;;;;;;2.75;2.55;;;;;;;;;;5083602;28;20386;-85
2023/08/13 11:07:38;;;;;;;4.80;2.83;;;;;;;;;;5084162;28;20369;-85
2023/08/13 11:10:05;;;;;;;4.22;3.17;;;;;;;;;;5083003;28;20395;-86
2023/08/13 11:12:31;;;;;;;4.45;2.80;;;;;;;;;;5074217;28;20729;-86
2023/08/13 11:15:00;;;;;;;3.67;3.13;;;;;;;;;;5080112;28;20384;-86
2023/08/13 11:17:26;;;;;;;3.83;2.95;;;;;;;;;;5076185;28;20392;-86
2023/08/13 11:19:56;;;;;;;4.40;3.03;;;;;;;;;;5074457;28;20383;-86
2023/08/13 11:22:24;;;;;;;3.33;3.03;;;;;;;;;;5084633;28;20378;-85
2023/08/13 11:24:50;;;;;;;3.25;2.80;;;;;;;;;;5088230;28;20819;-85
2023/08/13 11:27:16;;;;;;;3.60;3.00;;;;;;;;;;5086281;28;20471;-84
2023/08/13 11:29:42;;;;;;;3.83;3.00;;;;;;;;;;5092285;28;20378;-85
2023/08/13 11:32:08;;;;;;;5.45;2.80;;;;;;;;;;5092604;28;20385;-86
2023/08/13 11:34:34;;;;;;;3.97;2.80;;;;;;;;;;5085184;28;20379;-85
2023/08/13 11:37:00;;;;;;;3.65;2.90;;;;;;;;;;5080374;28;20520;-86
2023/08/13 11:39:27;;;;;;;5.70;2.80;;;;;;;;;;5075145;28;20385;-86
2023/08/13 11:41:53;;;;;;;3.75;2.92;;;;;;;;;;5081624;28;20699;-86
2023/08/13 11:44:20;;;;;;;2.83;2.60;;;;;;;;;;5066650;28;20430;-86
2023/08/13 11:46:56;;;;;;;3.17;2.60;;;;;;;;;;5080332;28;20390;-87
2023/08/13 11:49:22;;;;;;;4.27;2.90;;;;;;;;;;5062478;28;20859;-85
2023/08/13 11:51:49;;;;;;;4.10;2.97;;;;;;;;;;5091579;28;20752;-85
2023/08/13 11:54:17;;;;;;;3.90;2.53;;;;;;;;;;5075216;28;20398;-85
2023/08/13 11:56:43;;;;;;;2.87;2.57;;;;;;;;;;5075535;28;20387;-85
2023/08/13 11:59:09;;;;;;;3.07;2.73;;;;;;;;;;5076021;28;20372;-85
2023/08/13 12:01:36;;;;;;;3.03;2.72;;;;;;;;;;5084610;28;20382;-85
2023/08/13 12:04:07;;;;;;;3.53;2.65;;;;;;;;;;5082136;28;20452;-85
2023/08/13 12:06:35;;;;;;;4.30;2.67;;;;;;;;;;5081577;28;20451;-84
2023/08/13 12:09:03;;;;;;;5.15;2.88;;;;;;;;;;5064822;28;20905;-85
2023/08/13 12:11:29;;;;;;;3.60;2.60;;;;;;;;;;5089472;28;20390;-85
2023/08/13 12:13:55;;;;;;;4.20;2.63;;;;;;;;;;5086799;28;20552;-85
2023/08/13 12:16:21;;;;;;;5.10;2.80;;;;;;;;;;5086907;28;20420;-85
2023/08/13 12:18:47;;;;;;;3.38;2.75;;;;;;;;;;5085895;28;20459;-85
2023/08/13 12:21:13;;;;;;;4.75;2.70;;;;;;;;;;5075271;28;20380;-84
2023/08/13 12:23:39;;;;;;;3.65;2.80;;;;;;;;;;5090237;28;20495;-85
2023/08/13 12:26:05;;;;;;;4.03;2.85;;;;;;;;;;5082680;28;20383;-85
2023/08/13 12:28:31;;;;;;;4.43;2.47;;;;;;;;;;5076765;28;20467;-85
2023/08/13 12:30:57;;;;;;;4.67;2.57;;;;;;;;;;5076925;28;20383;-85
2023/08/13 12:33:23;;;;;;;2.67;2.47;;;;;;;;;;5075451;28;20388;-84
2023/08/13 12:35:49;;;;;;;4.10;2.92;;;;;;;;;;5063775;28;20374;-85
2023/08/13 12:38:15;;;;;;;3.70;2.65;;;;;;;;;;5095789;28;20378;-85
2023/08/13 12:40:41;;;;;;;3.90;2.78;;;;;;;;;;5091570;28;20865;-84
2023/08/13 12:43:07;;;;;;;3.45;2.90;;;;;;;;;;5076207;28;20431;-85
2023/08/13 12:45:33;;;;;;;3.28;2.50;;;;;;;;;;5076255;28;20388;-85
2023/08/13 12:47:59;;;;;;;3.60;2.60;;;;;;;;;;5084831;28;20412;-84
2023/08/13 12:50:25;;;;;;;3.00;2.70;;;;;;;;;;5081393;28;20371;-85
2023/08/13 12:52:51;;;;;;;3.47;2.85;;;;;;;;;;5084424;28;20957;-85
2023/08/13 12:55:17;;;;;;;3.58;2.47;;;;;;;;;;5089156;28;20433;-84
2023/08/13 12:57:44;;;;;;;3.63;2.90;;;;;;;;;;5091404;28;20378;-86
2023/08/13 13:00:10;;;;;;;3.80;2.70;;;;;;;;;;5063809;28;20440;-84
2023/08/13 13:02:36;;;;;;;2.78;2.40;;;;;;;;;;5076079;28;20437;-86
2023/08/13 13:05:03;;;;;;;4.18;2.90;;;;;;;;;;5085191;28;20496;-84
2023/08/13 13:07:29;;;;;;;4.13;2.78;;;;;;;;;;5066036;28;20711;-85
2023/08/13 13:09:55;;;;;;;3.20;2.65;;;;;;;;;;5084373;28;20398;-84
2023/08/13 13:12:22;;;;;;;3.65;2.88;;;;;;;;;;5076526;28;20385;-84
2023/08/13 13:14:48;;;;;;;3.20;2.72;;;;;;;;;;5087977;28;20422;-84
2023/08/13 13:17:15;;;;;;;2.90;2.63;;;;;;;;;;5076313;28;20732;-84
2023/08/13 13:19:42;;;;;;;4.10;2.70;;;;;;;;;;5077061;28;20379;-85
2023/08/13 13:22:08;;;;;;;5.22;3.10;;;;;;;;;;5073268;28;20400;-84
2023/08/13 13:24:34;;;;;;;4.75;2.70;;;;;;;;;;5079391;28;20439;-85
2023/08/13 13:27:01;;;;;;;3.60;3.00;;;;;;;;;;5083986;28;20419;-85
2023/08/13 13:29:27;;;;;;;3.05;2.80;;;;;;;;;;5090755;28;20382;-84
2023/08/13 13:31:53;;;;;;;3.22;2.90;;;;;;;;;;5094540;28;20435;-84
2023/08/13 13:34:19;;;;;;;3.80;3.17;;;;;;;;;;5089535;28;20387;-83
2023/08/13 13:36:45;;;;;;;3.20;2.83;;;;;;;;;;5072019;28;20410;-84
2023/08/13 13:39:11;;;;;;;5.20;3.20;;;;;;;;;;5077915;28;20386;-83
2023/08/13 13:41:37;;;;;;;3.13;2.75;;;;;;;;;;5072490;28;20402;-84
2023/08/13 13:44:03;;;;;;;5.50;2.70;;;;;;;;;;5094954;28;20422;-84
2023/08/13 13:46:29;;;;;;;4.47;3.05;;;;;;;;;;5088057;28;20385;-84
2023/08/13 13:48:55;;;;;;;3.03;2.67;;;;;;;;;;5098740;28;20381;-84
2023/08/13 13:51:20;;;;;;;4.70;2.85;;;;;;;;;;5098512;28;20385;-84
2023/08/13 13:53:48;;;;;;;4.00;2.97;;;;;;;;;;5098661;28;20386;-84
2023/08/13 13:56:14;;;;;;;4.47;2.88;;;;;;;;;;5098637;28;20427;-85
2023/08/13 13:58:40;;;;;;;5.35;2.83;;;;;;;;;;5067597;28;20384;-84
2023/08/13 14:01:06;;;;;;;4.18;2.90;;;;;;;;;;5095446;28;20882;-85
2023/08/13 14:03:32;;;;;;;4.38;2.65;;;;;;;;;;5069697;28;20422;-84
2023/08/13 14:05:58;;;;;;;3.78;3.20;;;;;;;;;;5079573;28;20382;-84
2023/08/13 14:08:25;;;;;;;4.43;2.97;;;;;;;;;;5095719;28;20454;-84
2023/08/13 14:10:51;;;;;;;3.67;3.13;;;;;;;;;;5096713;28;20939;-83
2023/08/13 14:13:17;;;;;;;3.33;3.03;;;;;;;;;;5090923;28;20405;-85
2023/08/13 14:15:44;;;;;;;3.38;3.08;;;;;;;;;;5085637;28;20384;-84
2023/08/13 14:18:10;;;;;;;4.70;2.90;;;;;;;;;;5077932;28;20690;-84
2023/08/13 14:20:36;;;;;;;3.53;2.50;;;;;;;;;;5071672;28;20474;-86
2023/08/13 14:23:02;;;;;;;3.47;2.97;;;;;;;;;;5089649;28;20468;-86
2023/08/13 14:25:28;;;;;;;4.13;2.80;;;;;;;;;;5088643;28;20450;-86
2023/08/13 14:27:54;;;;;;;4.18;2.75;;;;;;;;;;5077068;28;20411;-86
2023/08/13 14:30:20;;;;;;;3.13;2.83;;;;;;;;;;5076496;28;20404;-86
2023/08/13 14:32:46;;;;;;;2.75;2.55;;;;;;;;;;5066503;28;20382;-87
2023/08/13 14:35:12;;;;;;;4.57;2.88;;;;;;;;;;5082072;28;20718;-87
2023/08/13 14:37:38;;;;;;;3.97;2.80;;;;;;;;;;5085240;28;20390;-86
2023/08/13 14:40:05;;;;;;;4.72;2.88;;;;;;;;;;5084698;28;20820;-88